Time;durP1;ratioP1;P1;durP2;ratioP2;P2;SDS_P1;SDS_P2;PMS_P1;PMS_P2;Temp;Humidity;BMP_temperature;BMP_pressure;BME280_temperature;BME280_humidity;BME280_pressure;Samples;Min_cycle;Max_cycle;Signal;HPM_P1;HPM_P2
2021/10/16 00:01:45;;;;;;;;;15.25;14.25;;;;;;;;3053195;29;26249653;-81
2021/10/16 00:04:10;;;;;;;;;11.33;9.00;;;;;;;;4782725;29;594103;-79
2021/10/16 00:06:36;;;;;;;;;12.67;10.00;;;;;;;;4806247;29;45546;-80
2021/10/16 00:09:01;;;;;;;;;14.00;11.00;;;;;;;;4825695;29;59313;-79
2021/10/16 00:11:26;;;;;;;;;11.25;11.25;;;;;;;;4824251;29;45452;-81
2021/10/16 00:13:51;;;;;;;;;11.00;9.67;;;;;;;;4828665;29;79755;-79
2021/10/16 00:16:16;;;;;;;;;12.00;12.00;;;;;;;;4833126;29;54869;-78
2021/10/16 00:18:42;;;;;;;;;14.67;10.33;;;;;;;;4815273;29;44797;-78
2021/10/16 00:21:07;;;;;;;;;11.67;10.00;;;;;;;;4804599;29;182025;-81
2021/10/16 00:23:32;;;;;;;;;10.00;9.00;;;;;;;;4813206;29;45577;-79
2021/10/16 00:25:58;;;;;;;;;8.25;8.25;;;;;;;;4818934;29;229491;-80
2021/10/16 00:28:23;;;;;;;;;12.33;11.00;;;;;;;;4829061;29;56007;-80
2021/10/16 00:30:49;;;;;;;;;10.33;10.00;;;;;;;;4828726;29;52582;-80
2021/10/16 00:33:14;;;;;;;;;14.25;11.00;;;;;;;;4830630;29;45932;-78
2021/10/16 00:35:40;;;;;;;;;14.75;12.50;;;;;;;;4831432;29;44934;-80
2021/10/16 00:38:05;;;;;;;;;8.50;8.25;;;;;;;;4797010;29;301438;-80
2021/10/16 00:40:30;;;;;;;;;11.33;10.00;;;;;;;;4827653;29;42460;-80
2021/10/16 00:42:55;;;;;;;;;12.00;11.25;;;;;;;;4829599;29;97603;-76
2021/10/16 00:45:22;;;;;;;;;17.00;12.00;;;;;;;;4822672;29;172324;-78
2021/10/16 00:47:47;;;;;;;;;14.50;11.25;;;;;;;;4814129;29;186987;-79
2021/10/16 00:50:14;;;;;;;;;11.75;9.75;;;;;;;;4831177;29;28737;-79
2021/10/16 00:52:40;;;;;;;;;13.75;9.00;;;;;;;;4799473;29;501855;-78
2021/10/16 00:55:06;;;;;;;;;16.00;12.50;;;;;;;;4815262;29;467838;-78
2021/10/16 00:57:31;;;;;;;;;10.00;10.00;;;;;;;;4621530;29;1817843;-80
2021/10/16 00:59:57;;;;;;;;;9.75;9.00;;;;;;;;4762338;29;1049440;-78
2021/10/16 01:02:22;;;;;;;;;11.25;10.50;;;;;;;;4825901;29;44319;-81
2021/10/16 01:04:47;;;;;;;;;13.50;11.75;;;;;;;;4817206;29;230915;-81
2021/10/16 01:07:13;;;;;;;;;14.75;11.00;;;;;;;;4823777;29;55455;-80
2021/10/16 01:09:41;;;;;;;;;10.25;9.50;;;;;;;;4802090;29;324556;-81
2021/10/16 01:12:06;;;;;;;;;12.50;11.25;;;;;;;;4807650;29;374504;-78
2021/10/16 01:14:32;;;;;;;;;14.00;11.00;;;;;;;;4809417;29;46907;-79
2021/10/16 01:16:58;;;;;;;;;16.00;11.00;;;;;;;;4802138;29;341582;-78
2021/10/16 01:19:25;;;;;;;;;14.75;11.00;;;;;;;;4800558;29;509701;-81
2021/10/16 01:21:51;;;;;;;;;15.00;10.00;;;;;;;;4806971;29;358064;-82
2021/10/16 01:24:17;;;;;;;;;11.25;10.00;;;;;;;;4821817;29;53420;-80
2021/10/16 01:26:44;;;;;;;;;13.25;11.00;;;;;;;;4813807;29;174641;-81
2021/10/16 01:29:10;;;;;;;;;15.50;11.00;;;;;;;;4815786;29;45448;-80
2021/10/16 01:31:37;;;;;;;;;10.75;9.75;;;;;;;;4812270;29;111683;-78
2021/10/16 01:34:03;;;;;;;;;13.75;12.50;;;;;;;;4802619;29;244176;-78
2021/10/16 01:36:38;;;;;;;;;10.75;9.00;;;;;;;;4813509;29;158925;-80
2021/10/16 01:39:03;;;;;;;;;11.75;10.00;;;;;;;;4790237;29;292741;-80
2021/10/16 01:41:28;;;;;;;;;11.00;9.00;;;;;;;;4787039;29;757488;-78
2021/10/16 01:43:54;;;;;;;;;9.00;8.00;;;;;;;;4763265;29;793734;-81
2021/10/16 01:46:19;;;;;;;;;9.50;7.75;;;;;;;;4808807;29;49174;-78
2021/10/16 01:48:45;;;;;;;;;11.33;10.67;;;;;;;;4818985;29;160335;-78
2021/10/16 01:51:16;;;;;;;;;10.75;10.00;;;;;;;;4823137;29;45607;-78
2021/10/16 01:53:43;;;;;;;;;10.00;9.25;;;;;;;;4819673;29;145368;-80
2021/10/16 01:56:08;;;;;;;;;11.50;9.75;;;;;;;;4788956;29;824553;-78
2021/10/16 01:58:35;;;;;;;;;9.00;8.00;;;;;;;;4822692;29;46595;-81
2021/10/16 02:01:00;;;;;;;;;11.00;10.00;;;;;;;;4737944;29;2707249;-78
2021/10/16 02:03:25;;;;;;;;;15.75;9.75;;;;;;;;4769677;29;1521595;-81
2021/10/16 02:05:51;;;;;;;;;9.25;9.25;;;;;;;;4812993;29;324118;-79
2021/10/16 02:08:16;;;;;;;;;12.67;10.67;;;;;;;;4664634;29;1664390;-78
2021/10/16 02:10:41;;;;;;;;;9.33;8.00;;;;;;;;4440022;29;2741463;-78
2021/10/16 02:13:06;;;;;;;;;12.75;9.00;;;;;;;;4712896;29;1083954;-80
2021/10/16 02:15:32;;;;;;;;;12.00;9.00;;;;;;;;4453741;29;3061322;-80
2021/10/16 02:17:57;;;;;;;;;13.00;9.25;;;;;;;;4747593;29;536163;-79
2021/10/16 02:20:22;;;;;;;;;9.25;8.50;;;;;;;;4729078;29;1278760;-78
2021/10/16 02:22:48;;;;;;;;;9.50;9.00;;;;;;;;4534465;29;2816465;-81
2021/10/16 02:25:13;;;;;;;;;9.25;9.25;;;;;;;;4500363;29;3631948;-80
2021/10/16 02:27:38;;;;;;;;;13.33;7.00;;;;;;;;4811982;29;45989;-78
2021/10/16 02:30:04;;;;;;;;;9.75;8.25;;;;;;;;4809856;29;45499;-80
2021/10/16 02:32:29;;;;;;;;;14.75;8.75;;;;;;;;4814741;29;45601;-78
2021/10/16 02:34:54;;;;;;;;;13.00;10.67;;;;;;;;4785289;29;753736;-81
2021/10/16 02:37:19;;;;;;;;;8.75;7.75;;;;;;;;4811786;29;46327;-78
2021/10/16 02:39:45;;;;;;;;;12.00;8.33;;;;;;;;4815126;29;45481;-79
2021/10/16 02:42:10;;;;;;;;;14.00;10.00;;;;;;;;4815560;29;107998;-78
2021/10/16 02:44:35;;;;;;;;;9.67;9.67;;;;;;;;4815199;29;48717;-81
2021/10/16 02:47:00;;;;;;;;;11.25;10.50;;;;;;;;4813866;29;47083;-78
2021/10/16 02:49:26;;;;;;;;;9.25;9.00;;;;;;;;4806063;29;188095;-80
2021/10/16 02:51:51;;;;;;;;;11.50;8.00;;;;;;;;4818956;29;45605;-78
2021/10/16 02:54:16;;;;;;;;;18.50;14.00;;;;;;;;4810366;29;45496;-78
2021/10/16 02:56:42;;;;;;;;;14.75;12.00;;;;;;;;4813313;29;45538;-81
2021/10/16 02:59:07;;;;;;;;;14.00;10.00;;;;;;;;4805582;29;173076;-79
2021/10/16 03:01:32;;;;;;;;;12.75;12.50;;;;;;;;4804892;29;45867;-78
2021/10/16 03:03:58;;;;;;;;;14.50;13.50;;;;;;;;4808993;29;45514;-80
2021/10/16 03:06:23;;;;;;;;;14.33;12.00;;;;;;;;4803443;29;45587;-80
2021/10/16 03:08:48;;;;;;;;;13.33;12.00;;;;;;;;4810734;29;45628;-78
2021/10/16 03:11:13;;;;;;;;;18.67;13.33;;;;;;;;4813583;29;45651;-79
2021/10/16 03:13:38;;;;;;;;;13.67;10.67;;;;;;;;4810016;29;45634;-80
2021/10/16 03:16:04;;;;;;;;;14.75;12.00;;;;;;;;4809117;29;46140;-81
2021/10/16 03:18:29;;;;;;;;;10.50;9.00;;;;;;;;4803229;29;46009;-78
2021/10/16 03:20:55;;;;;;;;;9.75;9.00;;;;;;;;4807739;29;46060;-81
2021/10/16 03:23:20;;;;;;;;;13.75;9.00;;;;;;;;4809986;29;46338;-81
2021/10/16 03:25:45;;;;;;;;;9.50;9.50;;;;;;;;4804270;29;45607;-79
2021/10/16 03:28:10;;;;;;;;;8.33;8.33;;;;;;;;4806655;29;45814;-81
2021/10/16 03:30:37;;;;;;;;;13.67;10.00;;;;;;;;4810719;29;45509;-78
2021/10/16 03:33:03;;;;;;;;;10.00;10.00;;;;;;;;4813972;29;45548;-80
2021/10/16 03:35:28;;;;;;;;;10.50;9.75;;;;;;;;4819865;29;45347;-80
2021/10/16 03:37:53;;;;;;;;;10.00;10.00;;;;;;;;4814050;29;45309;-80
2021/10/16 03:40:18;;;;;;;;;10.00;9.00;;;;;;;;4814592;29;45389;-80
2021/10/16 03:42:44;;;;;;;;;14.00;10.00;;;;;;;;4819288;29;45618;-78
2021/10/16 03:45:09;;;;;;;;;15.00;10.25;;;;;;;;4811251;29;45643;-81
2021/10/16 03:47:34;;;;;;;;;8.00;7.00;;;;;;;;4810536;29;108503;-79
2021/10/16 03:49:59;;;;;;;;;13.00;9.67;;;;;;;;4824604;29;45541;-78
2021/10/16 03:52:24;;;;;;;;;9.67;9.67;;;;;;;;4803913;29;58086;-80
2021/10/16 03:54:50;;;;;;;;;10.00;9.33;;;;;;;;4816821;29;46397;-78
2021/10/16 03:57:15;;;;;;;;;9.00;9.00;;;;;;;;4810578;29;45763;-81
2021/10/16 03:59:42;;;;;;;;;13.50;10.25;;;;;;;;4817249;29;58724;-81
2021/10/16 04:02:08;;;;;;;;;10.25;10.25;;;;;;;;4816803;29;70129;-78
2021/10/16 04:04:33;;;;;;;;;12.75;8.25;;;;;;;;4811834;29;45620;-78
2021/10/16 04:06:58;;;;;;;;;9.25;8.25;;;;;;;;4812958;29;45439;-81
2021/10/16 04:09:23;;;;;;;;;10.00;7.67;;;;;;;;4808577;29;45368;-81
2021/10/16 04:11:49;;;;;;;;;12.67;9.00;;;;;;;;4755820;29;793618;-81
2021/10/16 04:14:14;;;;;;;;;12.75;9.00;;;;;;;;4816750;29;47455;-78
2021/10/16 04:16:39;;;;;;;;;14.33;9.33;;;;;;;;4808587;29;88939;-80
2021/10/16 04:19:04;;;;;;;;;12.67;7.67;;;;;;;;4815295;29;46094;-78
2021/10/16 04:21:30;;;;;;;;;14.00;10.00;;;;;;;;4810735;29;133927;-78
2021/10/16 04:23:55;;;;;;;;;14.00;8.25;;;;;;;;4816393;29;45592;-78
2021/10/16 04:26:20;;;;;;;;;12.00;12.00;;;;;;;;4819777;29;45793;-80
2021/10/16 04:28:45;;;;;;;;;12.33;10.33;;;;;;;;4808165;29;46023;-78
2021/10/16 04:31:11;;;;;;;;;16.75;11.75;;;;;;;;4817992;29;45589;-79
2021/10/16 04:33:36;;;;;;;;;10.25;8.75;;;;;;;;4807725;29;46202;-81
2021/10/16 04:36:03;;;;;;;;;12.00;9.25;;;;;;;;4811999;29;45829;-78
2021/10/16 04:38:28;;;;;;;;;11.00;8.00;;;;;;;;4815324;29;52727;-79
2021/10/16 04:40:53;;;;;;;;;10.75;9.00;;;;;;;;4810834;29;45797;-81
2021/10/16 04:43:19;;;;;;;;;16.75;11.75;;;;;;;;4811104;29;46153;-78
2021/10/16 04:45:45;;;;;;;;;13.50;8.25;;;;;;;;4810032;29;45624;-80
2021/10/16 04:48:11;;;;;;;;;13.00;9.00;;;;;;;;4811806;29;45480;-78
2021/10/16 04:50:36;;;;;;;;;10.50;8.00;;;;;;;;4816464;29;50247;-80
2021/10/16 04:53:01;;;;;;;;;14.00;9.00;;;;;;;;4810323;29;149659;-80
2021/10/16 04:55:26;;;;;;;;;14.00;11.75;;;;;;;;4813914;29;45573;-78
2021/10/16 04:57:52;;;;;;;;;13.67;13.00;;;;;;;;4812703;29;45824;-81
2021/10/16 05:00:17;;;;;;;;;18.00;12.75;;;;;;;;4808462;29;45762;-80
2021/10/16 05:02:43;;;;;;;;;17.50;13.50;;;;;;;;4815923;29;46429;-78
2021/10/16 05:05:08;;;;;;;;;13.67;10.67;;;;;;;;4801217;29;45550;-80
2021/10/16 05:07:33;;;;;;;;;16.25;14.00;;;;;;;;4810932;29;45880;-79
2021/10/16 05:09:58;;;;;;;;;13.33;12.33;;;;;;;;4808529;29;94104;-79
2021/10/16 05:12:24;;;;;;;;;18.00;12.50;;;;;;;;4815657;29;45647;-80
2021/10/16 05:14:49;;;;;;;;;16.33;15.67;;;;;;;;4814728;29;45752;-79
2021/10/16 05:17:14;;;;;;;;;13.33;12.00;;;;;;;;4809158;29;45913;-80
2021/10/16 05:19:39;;;;;;;;;20.67;15.00;;;;;;;;4807152;29;45707;-77
2021/10/16 05:22:05;;;;;;;;;15.25;15.00;;;;;;;;4813649;29;46701;-78
2021/10/16 05:24:30;;;;;;;;;15.00;13.33;;;;;;;;4812986;29;45391;-77
2021/10/16 05:26:55;;;;;;;;;15.00;13.00;;;;;;;;4809585;29;45778;-79
2021/10/16 05:29:21;;;;;;;;;26.00;19.00;;;;;;;;4780049;29;384651;-80
2021/10/16 05:31:47;;;;;;;;;29.25;15.00;;;;;;;;4798056;29;363240;-79
2021/10/16 05:34:12;;;;;;;;;14.00;13.00;;;;;;;;4808344;29;45672;-81
2021/10/16 05:36:37;;;;;;;;;19.50;15.50;;;;;;;;4810792;29;45460;-78
2021/10/16 05:39:03;;;;;;;;;14.00;13.50;;;;;;;;4803334;29;45521;-77
2021/10/16 05:41:28;;;;;;;;;14.25;12.50;;;;;;;;4810693;29;45519;-77
2021/10/16 05:43:53;;;;;;;;;12.50;12.25;;;;;;;;4807339;29;51599;-80
2021/10/16 05:46:19;;;;;;;;;13.25;9.50;;;;;;;;4809412;29;45598;-78
2021/10/16 05:48:44;;;;;;;;;12.67;12.00;;;;;;;;4806388;29;52229;-78
2021/10/16 05:51:11;;;;;;;;;15.00;12.33;;;;;;;;4810189;29;99916;-78
2021/10/16 05:53:36;;;;;;;;;13.50;11.00;;;;;;;;4816818;29;75386;-80
2021/10/16 05:56:01;;;;;;;;;15.00;12.00;;;;;;;;4800498;29;126383;-78
2021/10/16 05:58:26;;;;;;;;;15.50;9.50;;;;;;;;4808585;29;45746;-77
2021/10/16 06:00:52;;;;;;;;;13.67;12.00;;;;;;;;4815017;29;45921;-77
2021/10/16 06:03:17;;;;;;;;;13.50;9.25;;;;;;;;4809845;29;124529;-80
2021/10/16 06:05:42;;;;;;;;;12.75;8.50;;;;;;;;4787083;29;644158;-78
2021/10/16 06:08:08;;;;;;;;;13.50;11.25;;;;;;;;4810573;29;109571;-79
2021/10/16 06:10:33;;;;;;;;;12.00;9.00;;;;;;;;4793247;29;46274;-79
2021/10/16 06:12:58;;;;;;;;;12.00;9.00;;;;;;;;4799258;29;45636;-79
2021/10/16 06:15:23;;;;;;;;;12.00;10.00;;;;;;;;4813096;29;45630;-77
2021/10/16 06:17:49;;;;;;;;;11.00;9.25;;;;;;;;4813357;29;47086;-76
2021/10/16 06:20:15;;;;;;;;;14.25;9.75;;;;;;;;4815251;29;45370;-77
2021/10/16 06:22:40;;;;;;;;;13.50;8.00;;;;;;;;4807474;29;46154;-80
2021/10/16 06:25:06;;;;;;;;;14.00;12.75;;;;;;;;4812615;29;46072;-79
2021/10/16 06:27:31;;;;;;;;;11.75;10.00;;;;;;;;4808056;29;49450;-77
2021/10/16 06:29:56;;;;;;;;;14.75;9.00;;;;;;;;4769812;29;432497;-76
2021/10/16 06:32:22;;;;;;;;;13.00;10.00;;;;;;;;4811055;29;120447;-77
2021/10/16 06:34:47;;;;;;;;;8.75;8.25;;;;;;;;4804971;29;54303;-76
2021/10/16 06:37:12;;;;;;;;;15.33;12.00;;;;;;;;4815966;29;43220;-79
2021/10/16 06:39:37;;;;;;;;;11.25;11.00;;;;;;;;4814433;29;46716;-79
2021/10/16 06:42:03;;;;;;;;;15.00;12.33;;;;;;;;4803919;29;47106;-78
2021/10/16 06:44:28;;;;;;;;;11.75;9.50;;;;;;;;4809590;29;78647;-76
2021/10/16 06:46:53;;;;;;;;;12.25;8.25;;;;;;;;4801505;29;45881;-77
2021/10/16 06:49:18;;;;;;;;;9.00;8.67;;;;;;;;4814222;29;46784;-77
2021/10/16 06:51:44;;;;;;;;;16.00;11.33;;;;;;;;4825769;29;45278;-76
2021/10/16 06:54:10;;;;;;;;;10.25;7.75;;;;;;;;4814491;29;45686;-79
2021/10/16 06:56:35;;;;;;;;;15.00;11.75;;;;;;;;4821165;29;45520;-79
2021/10/16 06:59:01;;;;;;;;;13.50;10.00;;;;;;;;4800873;29;190807;-79
2021/10/16 07:01:26;;;;;;;;;12.67;11.33;;;;;;;;4804597;29;45976;-78
2021/10/16 07:03:51;;;;;;;;;13.50;13.00;;;;;;;;4815412;29;55774;-77
2021/10/16 07:06:17;;;;;;;;;13.50;8.75;;;;;;;;4817144;29;47090;-80
2021/10/16 07:08:42;;;;;;;;;14.00;12.25;;;;;;;;4805962;29;182392;-80
2021/10/16 07:11:07;;;;;;;;;13.25;10.75;;;;;;;;4816670;29;45595;-76
2021/10/16 07:13:32;;;;;;;;;20.00;15.67;;;;;;;;4813333;29;54676;-78
2021/10/16 07:15:58;;;;;;;;;23.00;17.33;;;;;;;;4816448;29;79500;-76
2021/10/16 07:18:24;;;;;;;;;17.25;14.00;;;;;;;;4799002;29;83816;-77
2021/10/16 07:20:49;;;;;;;;;23.75;19.75;;;;;;;;4818153;29;90059;-77
2021/10/16 07:23:16;;;;;;;;;23.75;18.00;;;;;;;;4822743;29;45529;-78
2021/10/16 07:25:43;;;;;;;;;19.75;17.00;;;;;;;;4812115;29;52218;-79
2021/10/16 07:28:09;;;;;;;;;18.25;18.00;;;;;;;;4811519;29;46216;-79
2021/10/16 07:30:35;;;;;;;;;14.25;13.50;;;;;;;;4808549;29;45757;-77
2021/10/16 07:33:00;;;;;;;;;18.50;15.50;;;;;;;;4819312;29;46724;-79
2021/10/16 07:35:25;;;;;;;;;15.00;14.67;;;;;;;;4808360;29;45497;-78
2021/10/16 07:37:51;;;;;;;;;15.33;12.33;;;;;;;;4799674;29;574290;-76
2021/10/16 07:40:16;;;;;;;;;16.00;14.00;;;;;;;;4803069;29;307298;-77
2021/10/16 07:42:41;;;;;;;;;11.33;10.00;;;;;;;;4816445;29;45541;-77
2021/10/16 07:45:06;;;;;;;;;10.50;10.50;;;;;;;;4817124;29;79445;-78
2021/10/16 07:47:32;;;;;;;;;16.75;16.50;;;;;;;;4820016;29;145559;-77
2021/10/16 07:49:58;;;;;;;;;8.50;8.50;;;;;;;;4794737;29;78564;-77
2021/10/16 07:52:23;;;;;;;;;8.75;8.75;;;;;;;;4811592;29;45547;-79
2021/10/16 07:54:48;;;;;;;;;13.33;10.00;;;;;;;;4808995;29;104425;-80
2021/10/16 07:57:14;;;;;;;;;13.50;10.25;;;;;;;;4804868;29;116258;-80
2021/10/16 07:59:40;;;;;;;;;13.50;10.50;;;;;;;;4807252;29;56454;-76
2021/10/16 08:02:05;;;;;;;;;9.25;8.50;;;;;;;;4795094;29;158807;-78
2021/10/16 08:04:30;;;;;;;;;13.75;8.00;;;;;;;;4809575;29;45560;-78
2021/10/16 08:06:56;;;;;;;;;10.00;10.00;;;;;;;;4797390;29;56546;-77
2021/10/16 08:09:21;;;;;;;;;11.75;10.25;;;;;;;;4804695;29;233984;-80
2021/10/16 08:11:46;;;;;;;;;13.33;9.33;;;;;;;;4814573;29;45549;-80
2021/10/16 08:14:11;;;;;;;;;13.50;10.00;;;;;;;;4807975;29;243101;-77
2021/10/16 08:16:37;;;;;;;;;15.25;10.75;;;;;;;;4801253;29;268657;-77
2021/10/16 08:19:02;;;;;;;;;18.00;13.00;;;;;;;;4788747;29;396637;-77
2021/10/16 08:21:27;;;;;;;;;10.33;9.00;;;;;;;;4793156;29;58550;-77
2021/10/16 08:23:53;;;;;;;;;14.75;14.50;;;;;;;;4814238;29;45462;-79
2021/10/16 08:26:18;;;;;;;;;15.00;11.25;;;;;;;;4810766;29;162395;-77
2021/10/16 08:28:43;;;;;;;;;18.25;17.25;;;;;;;;4800803;29;284146;-79
2021/10/16 08:31:09;;;;;;;;;16.75;12.75;;;;;;;;4809333;29;45486;-77
2021/10/16 08:33:36;;;;;;;;;16.00;13.00;;;;;;;;4809086;29;45557;-78
2021/10/16 08:36:02;;;;;;;;;16.25;15.25;;;;;;;;4799514;29;353190;-78
2021/10/16 08:38:27;;;;;;;;;19.67;14.33;;;;;;;;4813279;29;45350;-80
2021/10/16 08:40:52;;;;;;;;;17.00;15.50;;;;;;;;4804725;29;51724;-76
2021/10/16 08:43:18;;;;;;;;;17.00;14.75;;;;;;;;4813338;29;45461;-79
2021/10/16 08:45:44;;;;;;;;;21.25;18.25;;;;;;;;4811854;29;46379;-80
2021/10/16 08:48:11;;;;;;;;;18.00;16.50;;;;;;;;4806935;29;46197;-78
2021/10/16 08:50:36;;;;;;;;;15.50;13.50;;;;;;;;4812724;29;45578;-78
2021/10/16 08:53:01;;;;;;;;;16.33;14.00;;;;;;;;4813867;29;89886;-77
2021/10/16 08:55:27;;;;;;;;;15.50;13.50;;;;;;;;4806959;29;68232;-75
2021/10/16 08:57:52;;;;;;;;;14.33;11.00;;;;;;;;4808705;29;46069;-76
2021/10/16 09:00:42;;;;;;;;;17.50;11.50;;;;;;;;4807927;29;100283;-76
2021/10/16 09:03:27;;;;;;;;;14.75;13.75;;;;;;;;4814736;29;45593;-77
2021/10/16 09:06:00;;;;;;;;;14.50;14.50;;;;;;;;4809466;29;45501;-76
2021/10/16 09:08:31;;;;;;;;;11.00;10.50;;;;;;;;4811527;29;143155;-76
2021/10/16 09:11:15;;;;;;;;;15.50;11.50;;;;;;;;4805747;29;114593;-77
2021/10/16 09:13:51;;;;;;;;;13.50;10.25;;;;;;;;4804991;29;45603;-77
2021/10/16 09:16:22;;;;;;;;;16.50;12.75;;;;;;;;4804179;29;45481;-76
2021/10/16 09:18:50;;;;;;;;;15.00;11.50;;;;;;;;4810151;29;45769;-76
2021/10/16 09:21:16;;;;;;;;;13.00;11.00;;;;;;;;4814954;29;53425;-76
2021/10/16 09:23:41;;;;;;;;;13.50;10.75;;;;;;;;4807316;29;47793;-76
2021/10/16 09:26:07;;;;;;;;;15.33;13.67;;;;;;;;4804975;29;45633;-76
2021/10/16 09:28:33;;;;;;;;;12.25;10.00;;;;;;;;4803903;29;64342;-76
2021/10/16 09:31:08;;;;;;;;;12.25;10.00;;;;;;;;4806456;29;45734;-76
2021/10/16 09:33:46;;;;;;;;;15.50;14.00;;;;;;;;4814327;29;49411;-76
2021/10/16 09:36:24;;;;;;;;;16.25;12.75;;;;;;;;4818254;29;46254;-77
2021/10/16 09:38:50;;;;;;;;;15.75;12.00;;;;;;;;4813863;29;45422;-76
2021/10/16 09:41:25;;;;;;;;;11.00;10.75;;;;;;;;4805064;29;171588;-77
2021/10/16 09:43:50;;;;;;;;;15.00;11.00;;;;;;;;4771936;29;639705;-76
2021/10/16 09:46:16;;;;;;;;;13.25;10.75;;;;;;;;4784707;29;448382;-77
2021/10/16 09:48:42;;;;;;;;;12.50;10.75;;;;;;;;4808200;29;115239;-77
2021/10/16 09:51:07;;;;;;;;;14.75;13.25;;;;;;;;4793649;29;218917;-77
2021/10/16 09:53:33;;;;;;;;;21.75;17.50;;;;;;;;4813612;29;46521;-78
2021/10/16 09:55:59;;;;;;;;;15.25;10.75;;;;;;;;4792164;29;350307;-79
2021/10/16 09:58:25;;;;;;;;;15.00;11.25;;;;;;;;4801666;29;46247;-79
2021/10/16 10:00:54;;;;;;;;;14.00;10.00;;;;;;;;4790774;29;216973;-79
2021/10/16 10:03:24;;;;;;;;;10.00;9.33;;;;;;;;4791893;29;461241;-79
2021/10/16 10:05:50;;;;;;;;;15.50;11.75;;;;;;;;4792101;29;297405;-79
2021/10/16 10:08:17;;;;;;;;;15.25;12.00;;;;;;;;4808466;29;59752;-79
2021/10/16 10:10:42;;;;;;;;;15.00;10.00;;;;;;;;4809629;29;45762;-79
2021/10/16 10:13:08;;;;;;;;;15.50;15.25;;;;;;;;4818073;29;71629;-79
2021/10/16 10:15:33;;;;;;;;;15.75;11.50;;;;;;;;4807805;29;170247;-78
2021/10/16 10:17:59;;;;;;;;;16.75;12.25;;;;;;;;4811178;29;143237;-78
2021/10/16 10:20:25;;;;;;;;;10.75;9.75;;;;;;;;4818814;29;45640;-78
2021/10/16 10:22:50;;;;;;;;;12.75;11.50;;;;;;;;4808985;29;111711;-79
2021/10/16 10:25:18;;;;;;;;;12.25;10.00;;;;;;;;4804545;29;306513;-78
2021/10/16 10:27:44;;;;;;;;;10.50;10.50;;;;;;;;4808686;29;262468;-78
2021/10/16 10:30:29;;;;;;;;;13.75;10.50;;;;;;;;4814391;29;45696;-79
2021/10/16 10:33:13;;;;;;;;;12.00;10.50;;;;;;;;4820448;29;68828;-78
2021/10/16 10:35:38;;;;;;;;;10.00;7.50;;;;;;;;4809191;29;279814;-79
2021/10/16 10:38:23;;;;;;;;;11.75;7.50;;;;;;;;4817392;29;62727;-79
2021/10/16 10:40:49;;;;;;;;;12.00;8.25;;;;;;;;4814645;29;44789;-79
2021/10/16 10:43:34;;;;;;;;;9.67;8.00;;;;;;;;4800613;29;149254;-78
2021/10/16 10:46:14;;;;;;;;;8.00;6.50;;;;;;;;4809725;29;149018;-79
2021/10/16 10:48:42;;;;;;;;;10.50;8.75;;;;;;;;4808511;29;198811;-79
2021/10/16 10:51:08;;;;;;;;;11.50;9.25;;;;;;;;4811334;29;108281;-79
2021/10/16 10:53:34;;;;;;;;;9.25;5.50;;;;;;;;4822059;29;49041;-76
2021/10/16 10:56:07;;;;;;;;;5.75;5.75;;;;;;;;4802873;29;333935;-76
2021/10/16 10:58:48;;;;;;;;;10.00;7.75;;;;;;;;4795474;29;504120;-76
2021/10/16 11:01:32;;;;;;;;;8.25;8.25;;;;;;;;4807864;29;45531;-76
2021/10/16 11:04:01;;;;;;;;;6.00;6.00;;;;;;;;4813990;29;45596;-76
2021/10/16 11:06:27;;;;;;;;;4.00;4.00;;;;;;;;4808953;29;45536;-77
2021/10/16 11:08:52;;;;;;;;;8.00;4.33;;;;;;;;4812308;29;45665;-77
2021/10/16 11:11:17;;;;;;;;;9.75;8.00;;;;;;;;4816812;29;45593;-76
2021/10/16 11:13:42;;;;;;;;;10.00;8.75;;;;;;;;4815134;29;48667;-76
2021/10/16 11:16:08;;;;;;;;;5.67;5.67;;;;;;;;4816321;29;46094;-77
2021/10/16 11:18:35;;;;;;;;;11.75;5.75;;;;;;;;4812207;29;45791;-77
2021/10/16 11:21:10;;;;;;;;;9.25;6.75;;;;;;;;4820687;29;47730;-78
2021/10/16 11:23:37;;;;;;;;;9.50;7.75;;;;;;;;4815684;29;45571;-77
2021/10/16 11:26:07;;;;;;;;;5.00;3.50;;;;;;;;4817454;29;46168;-75
2021/10/16 11:28:33;;;;;;;;;5.00;5.00;;;;;;;;4819777;29;64272;-77
2021/10/16 11:30:59;;;;;;;;;3.00;3.00;;;;;;;;4817255;29;57272;-77
2021/10/16 11:33:29;;;;;;;;;2.75;2.00;;;;;;;;4791956;29;606794;-76
2021/10/16 11:35:56;;;;;;;;;3.00;2.00;;;;;;;;4807863;29;47079;-76
2021/10/16 11:38:23;;;;;;;;;3.00;3.00;;;;;;;;4816542;29;81840;-77
2021/10/16 11:40:49;;;;;;;;;2.50;1.00;;;;;;;;4836250;24;45472;-76
2021/10/16 11:43:24;;;;;;;;;1.75;1.75;;;;;;;;4793804;29;45564;-81
2021/10/16 11:45:50;;;;;;;;;2.00;2.00;;;;;;;;4787279;29;45523;-81
2021/10/16 11:48:17;;;;;;;;;2.00;1.00;;;;;;;;4792052;29;45769;-77
2021/10/16 11:53:22;;;;;;;;;1.00;1.00;;;;;;;;5115221;24;45505;-77
2021/10/16 11:55:47;;;;;;;;;8.25;5.00;;;;;;;;4795322;29;45596;-76
2021/10/16 11:58:13;;;;;;;;;1.00;1.00;;;;;;;;4793020;29;45416;-76
2021/10/16 12:00:49;;;;;;;;;1.00;1.00;;;;;;;;4791261;29;45647;-77
2021/10/16 12:03:15;;;;;;;;;2.00;2.00;;;;;;;;4807890;29;45662;-77
2021/10/16 12:05:41;;;;;;;;;6.50;5.75;;;;;;;;4805014;29;46358;-77
2021/10/16 12:08:10;;;;;;;;;2.50;2.50;;;;;;;;4910726;23;45537;-77
2021/10/16 12:10:37;;;;;;;;;13.50;11.25;;;;;;;;4811224;29;45852;-77
2021/10/16 12:13:09;;;;;;;;;10.00;5.25;;;;;;;;4801561;29;401306;-76
2021/10/16 12:18:17;;;;;;;;;4.75;3.00;;;;;;;;5326866;23;78835;-77
2021/10/16 12:20:46;;;;;;;;;2.75;2.75;;;;;;;;4813964;29;45546;-77
2021/10/16 12:23:12;;;;;;;;;5.67;2.00;;;;;;;;4794205;29;565643;-77
2021/10/16 12:25:47;;;;;;;;;3.00;1.75;;;;;;;;4808742;29;119349;-77
2021/10/16 12:28:12;;;;;;;;;2.00;2.00;;;;;;;;4862662;23;45756;-76
2021/10/16 12:30:37;;;;;;;;;3.00;1.00;;;;;;;;4803132;29;45502;-76
2021/10/16 12:33:10;;;;;;;;;4.00;2.50;;;;;;;;4784627;29;159107;-77
2021/10/16 12:35:35;;;;;;;;;1.00;1.00;;;;;;;;4731632;29;1489092;-78
2021/10/16 12:38:01;;;;;;;;;4.75;2.50;;;;;;;;4794796;29;45537;-77
2021/10/16 12:43:02;;;;;;;;;2.00;2.00;;;;;;;;5144702;24;45557;-77
2021/10/16 12:45:40;;;;;;;;;2.25;2.00;;;;;;;;4794412;29;140636;-77
2021/10/16 12:48:26;;;;;;;;;2.00;2.00;;;;;;;;4790008;29;45697;-76
2021/10/16 12:50:52;;;;;;;;;2.00;2.00;;;;;;;;4793175;29;45841;-77
2021/10/16 12:53:18;;;;;;;;;2.75;2.75;;;;;;;;4796216;29;45624;-76
2021/10/16 12:55:43;;;;;;;;;3.00;3.00;;;;;;;;4787943;29;45552;-80
2021/10/16 12:58:09;;;;;;;;;3.75;2.00;;;;;;;;4776254;29;205773;-81
2021/10/16 13:00:40;;;;;;;;;3.75;2.00;;;;;;;;4793638;29;45643;-80
2021/10/16 13:03:06;;;;;;;;;1.00;1.00;;;;;;;;4793598;29;260391;-80
2021/10/16 13:05:31;;;;;;;;;4.00;3.00;;;;;;;;4811760;24;65622;-80
2021/10/16 13:10:26;;;;;;;;;1.75;1.75;;;;;;;;4772367;29;45518;-79
2021/10/16 13:12:51;;;;;;;;;2.00;2.00;;;;;;;;4772038;29;47518;-80
2021/10/16 13:15:17;;;;;;;;;1.00;1.00;;;;;;;;4784683;29;45480;-80
2021/10/16 13:17:43;;;;;;;;;1.25;1.25;;;;;;;;4784684;29;46678;-79
2021/10/16 13:22:44;;;;;;;;;4.00;1.75;;;;;;;;4879020;24;601155;-81
2021/10/16 13:25:10;;;;;;;;;1.50;1.00;;;;;;;;4772784;29;62598;-79
2021/10/16 13:27:36;;;;;;;;;3.50;2.75;;;;;;;;4751533;29;624332;-80
2021/10/16 13:30:02;;;;;;;;;3.00;2.00;;;;;;;;4559739;29;4818177;-80
2021/10/16 13:34:57;;;;;;;;;2.75;2.75;;;;;;;;4832285;24;46789;-81
2021/10/16 13:37:22;;;;;;;;;2.00;0.75;;;;;;;;4785923;29;45592;-80
2021/10/16 13:39:48;;;;;;;;;3.75;2.00;;;;;;;;4788625;29;45422;-80
2021/10/16 13:42:13;;;;;;;;;3.67;1.33;;;;;;;;4777902;29;52063;-80
2021/10/16 13:47:13;;;;;;;;;1.00;1.00;;;;;;;;4754615;27;45465;-80
2021/10/16 13:49:38;;;;;;;;;3.75;2.00;;;;;;;;4754028;29;45760;-80
2021/10/16 13:52:04;;;;;;;;;1.50;1.50;;;;;;;;4758787;29;45829;-80
2021/10/16 13:54:29;;;;;;;;;2.00;2.00;;;;;;;;4758154;29;45426;-80
2021/10/16 13:56:55;;;;;;;;;3.00;2.00;;;;;;;;4766712;29;45445;-80
2021/10/16 13:59:20;;;;;;;;;2.00;2.00;;;;;;;;4763304;29;45550;-80
2021/10/16 14:01:45;;;;;;;;;1.75;1.75;;;;;;;;4751390;29;51662;-79
2021/10/16 14:04:10;;;;;;;;;2.00;2.00;;;;;;;;4743493;29;50937;-80
2021/10/16 14:06:35;;;;;;;;;3.33;2.00;;;;;;;;4756097;29;45461;-79
2021/10/16 14:09:02;;;;;;;;;2.00;2.00;;;;;;;;4745786;29;229904;-80
2021/10/16 14:11:27;;;;;;;;;3.50;2.25;;;;;;;;4838788;24;45657;-79
2021/10/16 14:18:51;;;;;;;;;1.00;1.00;;;;;;;;4957818;23;45782;-79
2021/10/16 14:21:17;;;;;;;;;3.50;2.25;;;;;;;;4795607;29;45773;-79
2021/10/16 14:23:42;;;;;;;;;2.25;1.00;;;;;;;;4823079;29;45631;-79
2021/10/16 14:26:09;;;;;;;;;3.00;2.00;;;;;;;;4807470;29;395273;-79
2021/10/16 14:28:35;;;;;;;;;2.25;2.25;;;;;;;;4805801;29;49783;-80
2021/10/16 14:31:01;;;;;;;;;2.75;2.00;;;;;;;;4809150;29;45647;-79
2021/10/16 14:33:26;;;;;;;;;2.00;2.00;;;;;;;;4808491;29;45763;-80
2021/10/16 14:35:52;;;;;;;;;2.00;2.00;;;;;;;;4792170;29;45585;-81
2021/10/16 14:38:18;;;;;;;;;1.00;1.00;;;;;;;;4816007;29;79667;-80
2021/10/16 14:40:43;;;;;;;;;2.00;2.00;;;;;;;;4816310;29;53862;-80
2021/10/16 14:43:08;;;;;;;;;1.50;1.25;;;;;;;;4804315;29;393057;-81